Terminal Aerodrome Forecast
Issued by NWS

Home | Current Version | Previous Version | Text Only | Print | Product List | Glossary Off
Versions: 1 2 3 4 5 6 7 8 9 10 11 12 13 14 15 16 17 18 19 20 21

000
FTUS43 KBIS 240200 AAA
TAFDIK
TAF AMD
KDIK 240234Z 2403/2424 14013G21KT P6SM FEW090
     FM240700 13015KT P6SM VCTS BKN080CB
      TEMPO 2408/2410 VRB15G25KT 4SM -TSRA BKN060CB
     FM241000 14015KT P6SM SCT250=

USA.gov is the U.S. government's official web portal to all federal, state and local government web resources and services.